sensor_id;sensor_type;location;lat;lon;timestamp;temperature;humidity
10447;DHT22;70909;45.768;4.884;2023-07-29T00:00:41;27.60;77.80
10447;DHT22;70909;45.768;4.884;2023-07-29T00:03:08;27.60;77.80
10447;DHT22;70909;45.768;4.884;2023-07-29T00:05:36;27.60;77.80
10447;DHT22;70909;45.768;4.884;2023-07-29T00:08:03;27.60;77.80
10447;DHT22;70909;45.768;4.884;2023-07-29T00:10:30;27.60;77.90
10447;DHT22;70909;45.768;4.884;2023-07-29T00:12:59;27.60;77.80
10447;DHT22;70909;45.768;4.884;2023-07-29T00:15:25;27.70;77.70
10447;DHT22;70909;45.768;4.884;2023-07-29T00:17:52;27.70;77.60
10447;DHT22;70909;45.768;4.884;2023-07-29T00:20:19;27.70;77.60
10447;DHT22;70909;45.768;4.884;2023-07-29T00:22:46;27.70;78.30
10447;DHT22;70909;45.768;4.884;2023-07-29T00:25:15;27.60;77.80
10447;DHT22;70909;45.768;4.884;2023-07-29T00:27:42;27.60;77.90
10447;DHT22;70909;45.768;4.884;2023-07-29T00:30:11;27.60;78.00
10447;DHT22;70909;45.768;4.884;2023-07-29T00:32:38;27.50;78.10
10447;DHT22;70909;45.768;4.884;2023-07-29T00:35:06;27.50;78.10
10447;DHT22;70909;45.768;4.884;2023-07-29T00:37:33;27.50;78.00
10447;DHT22;70909;45.768;4.884;2023-07-29T00:40:00;27.50;78.20
10447;DHT22;70909;45.768;4.884;2023-07-29T00:42:26;27.50;78.40
10447;DHT22;70909;45.768;4.884;2023-07-29T00:44:53;27.40;78.50
10447;DHT22;70909;45.768;4.884;2023-07-29T00:47:22;27.50;78.50
10447;DHT22;70909;45.768;4.884;2023-07-29T00:49:51;27.50;78.50
10447;DHT22;70909;45.768;4.884;2023-07-29T00:52:18;27.50;78.50
10447;DHT22;70909;45.768;4.884;2023-07-29T00:54:44;27.50;78.40
10447;DHT22;70909;45.768;4.884;2023-07-29T00:57:13;27.50;78.40
10447;DHT22;70909;45.768;4.884;2023-07-29T00:59:41;27.50;78.40
10447;DHT22;70909;45.768;4.884;2023-07-29T01:02:08;27.40;78.40
10447;DHT22;70909;45.768;4.884;2023-07-29T01:04:37;27.50;78.50
10447;DHT22;70909;45.768;4.884;2023-07-29T01:07:09;27.40;78.60
10447;DHT22;70909;45.768;4.884;2023-07-29T01:09:45;27.40;78.80
10447;DHT22;70909;45.768;4.884;2023-07-29T01:12:19;27.50;78.80
10447;DHT22;70909;45.768;4.884;2023-07-29T01:14:53;27.40;78.80
10447;DHT22;70909;45.768;4.884;2023-07-29T01:17:23;27.40;78.90
10447;DHT22;70909;45.768;4.884;2023-07-29T01:20:00;27.40;78.90
10447;DHT22;70909;45.768;4.884;2023-07-29T01:22:32;27.40;79.00
10447;DHT22;70909;45.768;4.884;2023-07-29T01:25:00;27.40;79.00
10447;DHT22;70909;45.768;4.884;2023-07-29T01:27:28;27.40;79.00
10447;DHT22;70909;45.768;4.884;2023-07-29T01:29:55;27.40;78.90
10447;DHT22;70909;45.768;4.884;2023-07-29T01:32:28;27.40;79.00
10447;DHT22;70909;45.768;4.884;2023-07-29T01:35:00;27.40;79.20
10447;DHT22;70909;45.768;4.884;2023-07-29T01:37:32;27.30;79.40
10447;DHT22;70909;45.768;4.884;2023-07-29T01:40:01;27.30;79.60
10447;DHT22;70909;45.768;4.884;2023-07-29T01:42:29;27.30;80.00
10447;DHT22;70909;45.768;4.884;2023-07-29T01:44:56;27.20;80.60
10447;DHT22;70909;45.768;4.884;2023-07-29T01:47:23;27.20;80.80
10447;DHT22;70909;45.768;4.884;2023-07-29T01:49:50;27.10;81.40
10447;DHT22;70909;45.768;4.884;2023-07-29T01:52:17;26.90;82.00
10447;DHT22;70909;45.768;4.884;2023-07-29T01:54:44;26.80;82.70
10447;DHT22;70909;45.768;4.884;2023-07-29T01:57:12;26.80;83.20
10447;DHT22;70909;45.768;4.884;2023-07-29T01:59:39;26.70;83.40
10447;DHT22;70909;45.768;4.884;2023-07-29T02:02:06;26.70;83.60
10447;DHT22;70909;45.768;4.884;2023-07-29T02:04:33;26.70;83.70
10447;DHT22;70909;45.768;4.884;2023-07-29T02:07:00;26.70;84.00
10447;DHT22;70909;45.768;4.884;2023-07-29T02:09:26;26.60;84.20
10447;DHT22;70909;45.768;4.884;2023-07-29T02:11:53;26.70;84.60
10447;DHT22;70909;45.768;4.884;2023-07-29T02:14:21;26.60;84.70
10447;DHT22;70909;45.768;4.884;2023-07-29T02:16:48;26.60;85.00
10447;DHT22;70909;45.768;4.884;2023-07-29T02:19:15;26.60;85.50
10447;DHT22;70909;45.768;4.884;2023-07-29T02:21:42;26.50;85.80
10447;DHT22;70909;45.768;4.884;2023-07-29T02:24:09;26.50;86.20
10447;DHT22;70909;45.768;4.884;2023-07-29T02:26:36;26.50;86.40
10447;DHT22;70909;45.768;4.884;2023-07-29T02:29:03;26.50;86.60
10447;DHT22;70909;45.768;4.884;2023-07-29T02:31:31;26.50;86.70
10447;DHT22;70909;45.768;4.884;2023-07-29T02:33:58;26.40;86.90
10447;DHT22;70909;45.768;4.884;2023-07-29T02:36:24;26.50;86.80
10447;DHT22;70909;45.768;4.884;2023-07-29T02:38:51;26.40;87.40
10447;DHT22;70909;45.768;4.884;2023-07-29T02:41:18;26.40;87.50
10447;DHT22;70909;45.768;4.884;2023-07-29T02:43:49;26.40;87.60
10447;DHT22;70909;45.768;4.884;2023-07-29T02:46:16;26.40;88.00
10447;DHT22;70909;45.768;4.884;2023-07-29T02:48:44;26.30;88.00
10447;DHT22;70909;45.768;4.884;2023-07-29T02:51:11;26.20;88.20
10447;DHT22;70909;45.768;4.884;2023-07-29T02:53:38;26.20;88.30
10447;DHT22;70909;45.768;4.884;2023-07-29T02:56:05;26.20;88.70
10447;DHT22;70909;45.768;4.884;2023-07-29T02:58:35;26.20;88.60
10447;DHT22;70909;45.768;4.884;2023-07-29T03:01:03;26.20;88.60
10447;DHT22;70909;45.768;4.884;2023-07-29T03:03:31;26.10;88.90
10447;DHT22;70909;45.768;4.884;2023-07-29T03:06:01;26.10;88.80
10447;DHT22;70909;45.768;4.884;2023-07-29T03:08:28;26.10;89.10
10447;DHT22;70909;45.768;4.884;2023-07-29T03:10:56;26.10;89.30
10447;DHT22;70909;45.768;4.884;2023-07-29T03:13:23;26.10;89.10
10447;DHT22;70909;45.768;4.884;2023-07-29T03:15:50;26.10;89.00
10447;DHT22;70909;45.768;4.884;2023-07-29T03:18:16;26.20;89.00
10447;DHT22;70909;45.768;4.884;2023-07-29T03:20:43;26.20;89.00
10447;DHT22;70909;45.768;4.884;2023-07-29T03:23:11;26.30;88.70
10447;DHT22;70909;45.768;4.884;2023-07-29T03:25:38;26.30;88.70
10447;DHT22;70909;45.768;4.884;2023-07-29T03:28:05;26.20;88.30
10447;DHT22;70909;45.768;4.884;2023-07-29T03:30:32;26.20;88.60
10447;DHT22;70909;45.768;4.884;2023-07-29T03:32:59;26.10;88.70
10447;DHT22;70909;45.768;4.884;2023-07-29T03:35:25;26.00;88.80
10447;DHT22;70909;45.768;4.884;2023-07-29T03:37:52;26.00;88.70
10447;DHT22;70909;45.768;4.884;2023-07-29T03:40:20;26.10;88.60
10447;DHT22;70909;45.768;4.884;2023-07-29T03:42:46;26.00;88.80
10447;DHT22;70909;45.768;4.884;2023-07-29T03:45:13;26.00;89.20
10447;DHT22;70909;45.768;4.884;2023-07-29T03:47:40;25.90;89.20
10447;DHT22;70909;45.768;4.884;2023-07-29T03:50:07;25.90;89.80
10447;DHT22;70909;45.768;4.884;2023-07-29T03:52:34;25.90;88.90
10447;DHT22;70909;45.768;4.884;2023-07-29T03:55:01;25.90;88.90
10447;DHT22;70909;45.768;4.884;2023-07-29T03:57:29;25.90;88.80
10447;DHT22;70909;45.768;4.884;2023-07-29T03:59:56;26.00;88.80
10447;DHT22;70909;45.768;4.884;2023-07-29T04:02:23;26.00;88.60
10447;DHT22;70909;45.768;4.884;2023-07-29T04:04:49;26.00;88.40
10447;DHT22;70909;45.768;4.884;2023-07-29T04:07:16;26.00;88.40
10447;DHT22;70909;45.768;4.884;2023-07-29T04:09:43;26.00;88.50
10447;DHT22;70909;45.768;4.884;2023-07-29T04:12:10;25.90;88.30
10447;DHT22;70909;45.768;4.884;2023-07-29T04:14:38;26.00;88.10
10447;DHT22;70909;45.768;4.884;2023-07-29T04:17:06;26.00;88.20
10447;DHT22;70909;45.768;4.884;2023-07-29T04:19:33;26.00;88.10
10447;DHT22;70909;45.768;4.884;2023-07-29T04:22:00;25.90;88.00
10447;DHT22;70909;45.768;4.884;2023-07-29T04:24:27;25.90;88.00
10447;DHT22;70909;45.768;4.884;2023-07-29T04:26:54;25.80;88.00
10447;DHT22;70909;45.768;4.884;2023-07-29T04:29:21;25.80;88.30
10447;DHT22;70909;45.768;4.884;2023-07-29T04:31:50;25.80;88.20
10447;DHT22;70909;45.768;4.884;2023-07-29T04:34:17;25.80;88.20
10447;DHT22;70909;45.768;4.884;2023-07-29T04:36:44;25.80;88.00
10447;DHT22;70909;45.768;4.884;2023-07-29T04:39:11;25.90;87.80
10447;DHT22;70909;45.768;4.884;2023-07-29T04:41:38;25.90;87.70
10447;DHT22;70909;45.768;4.884;2023-07-29T04:44:04;25.80;88.00
10447;DHT22;70909;45.768;4.884;2023-07-29T04:46:31;25.80;88.30
10447;DHT22;70909;45.768;4.884;2023-07-29T04:49:00;25.80;88.00
10447;DHT22;70909;45.768;4.884;2023-07-29T04:51:28;25.80;88.10
10447;DHT22;70909;45.768;4.884;2023-07-29T04:53:55;25.70;88.10
10447;DHT22;70909;45.768;4.884;2023-07-29T04:56:21;25.70;88.00
10447;DHT22;70909;45.768;4.884;2023-07-29T04:58:48;25.70;88.10
10447;DHT22;70909;45.768;4.884;2023-07-29T05:01:15;25.80;88.00
10447;DHT22;70909;45.768;4.884;2023-07-29T05:03:42;25.90;87.70
10447;DHT22;70909;45.768;4.884;2023-07-29T05:06:11;25.90;87.60
10447;DHT22;70909;45.768;4.884;2023-07-29T05:08:38;25.90;87.30
10447;DHT22;70909;45.768;4.884;2023-07-29T05:11:05;26.00;87.30
10447;DHT22;70909;45.768;4.884;2023-07-29T05:13:32;26.00;87.40
10447;DHT22;70909;45.768;4.884;2023-07-29T05:15:58;25.90;87.30
10447;DHT22;70909;45.768;4.884;2023-07-29T05:18:25;25.80;87.50
10447;DHT22;70909;45.768;4.884;2023-07-29T05:20:52;25.70;87.80
10447;DHT22;70909;45.768;4.884;2023-07-29T05:23:20;25.70;88.10
10447;DHT22;70909;45.768;4.884;2023-07-29T05:25:47;25.70;87.90
10447;DHT22;70909;45.768;4.884;2023-07-29T05:28:14;25.80;87.80
10447;DHT22;70909;45.768;4.884;2023-07-29T05:30:41;25.80;87.80
10447;DHT22;70909;45.768;4.884;2023-07-29T05:33:10;25.80;87.70
10447;DHT22;70909;45.768;4.884;2023-07-29T05:35:38;25.80;87.60
10447;DHT22;70909;45.768;4.884;2023-07-29T05:38:04;25.90;87.50
10447;DHT22;70909;45.768;4.884;2023-07-29T05:40:35;25.90;87.40
10447;DHT22;70909;45.768;4.884;2023-07-29T05:43:01;25.90;87.50
10447;DHT22;70909;45.768;4.884;2023-07-29T05:45:28;25.90;87.60
10447;DHT22;70909;45.768;4.884;2023-07-29T05:47:56;25.80;87.70
10447;DHT22;70909;45.768;4.884;2023-07-29T05:50:23;25.80;87.90
10447;DHT22;70909;45.768;4.884;2023-07-29T05:52:50;25.90;87.80
10447;DHT22;70909;45.768;4.884;2023-07-29T05:55:17;25.80;87.90
10447;DHT22;70909;45.768;4.884;2023-07-29T05:57:45;25.80;88.00
10447;DHT22;70909;45.768;4.884;2023-07-29T06:00:12;25.70;88.30
10447;DHT22;70909;45.768;4.884;2023-07-29T06:02:39;25.80;88.50
10447;DHT22;70909;45.768;4.884;2023-07-29T06:05:07;25.80;88.40
10447;DHT22;70909;45.768;4.884;2023-07-29T06:07:33;25.80;88.10
10447;DHT22;70909;45.768;4.884;2023-07-29T06:10:00;25.80;88.10
10447;DHT22;70909;45.768;4.884;2023-07-29T06:12:27;25.80;88.30
10447;DHT22;70909;45.768;4.884;2023-07-29T06:14:55;25.70;88.60
10447;DHT22;70909;45.768;4.884;2023-07-29T06:17:22;25.70;89.60
10447;DHT22;70909;45.768;4.884;2023-07-29T06:19:49;25.70;89.30
10447;DHT22;70909;45.768;4.884;2023-07-29T06:22:16;25.70;89.30
10447;DHT22;70909;45.768;4.884;2023-07-29T06:24:42;25.60;89.60
10447;DHT22;70909;45.768;4.884;2023-07-29T06:27:09;25.60;89.90
10447;DHT22;70909;45.768;4.884;2023-07-29T06:29:36;25.50;90.10
10447;DHT22;70909;45.768;4.884;2023-07-29T06:32:05;25.60;90.30
10447;DHT22;70909;45.768;4.884;2023-07-29T06:34:32;25.60;90.40
10447;DHT22;70909;45.768;4.884;2023-07-29T06:36:59;25.60;90.50
10447;DHT22;70909;45.768;4.884;2023-07-29T06:39:26;25.70;90.50
10447;DHT22;70909;45.768;4.884;2023-07-29T06:41:52;25.80;90.50
10447;DHT22;70909;45.768;4.884;2023-07-29T06:44:19;25.90;90.50
10447;DHT22;70909;45.768;4.884;2023-07-29T06:46:46;25.90;90.50
10447;DHT22;70909;45.768;4.884;2023-07-29T06:49:14;25.90;90.50
10447;DHT22;70909;45.768;4.884;2023-07-29T06:51:41;25.90;90.50
10447;DHT22;70909;45.768;4.884;2023-07-29T06:54:08;25.80;90.50
10447;DHT22;70909;45.768;4.884;2023-07-29T06:56:35;25.80;90.50
10447;DHT22;70909;45.768;4.884;2023-07-29T06:59:02;25.90;90.30
10447;DHT22;70909;45.768;4.884;2023-07-29T07:01:29;25.90;90.10
10447;DHT22;70909;45.768;4.884;2023-07-29T07:03:56;26.00;90.20
10447;DHT22;70909;45.768;4.884;2023-07-29T07:06:25;26.00;90.00
10447;DHT22;70909;45.768;4.884;2023-07-29T07:08:52;26.00;89.90
10447;DHT22;70909;45.768;4.884;2023-07-29T07:11:19;26.00;90.20
10447;DHT22;70909;45.768;4.884;2023-07-29T07:13:46;26.00;90.40
10447;DHT22;70909;45.768;4.884;2023-07-29T07:16:12;25.90;90.70
10447;DHT22;70909;45.768;4.884;2023-07-29T07:18:39;25.90;90.90
10447;DHT22;70909;45.768;4.884;2023-07-29T07:21:06;25.90;91.00
10447;DHT22;70909;45.768;4.884;2023-07-29T07:23:34;25.90;91.00
10447;DHT22;70909;45.768;4.884;2023-07-29T07:26:01;25.80;91.30
10447;DHT22;70909;45.768;4.884;2023-07-29T07:28:28;25.80;91.40
10447;DHT22;70909;45.768;4.884;2023-07-29T07:30:55;25.90;91.60
10447;DHT22;70909;45.768;4.884;2023-07-29T07:33:21;25.90;91.90
10447;DHT22;70909;45.768;4.884;2023-07-29T07:35:48;26.10;92.20
10447;DHT22;70909;45.768;4.884;2023-07-29T07:38:15;26.10;92.00
10447;DHT22;70909;45.768;4.884;2023-07-29T07:40:52;26.10;91.90
10447;DHT22;70909;45.768;4.884;2023-07-29T07:43:20;26.10;92.50
10447;DHT22;70909;45.768;4.884;2023-07-29T07:45:47;26.00;92.20
10447;DHT22;70909;45.768;4.884;2023-07-29T07:48:14;25.90;92.70
10447;DHT22;70909;45.768;4.884;2023-07-29T07:50:42;25.80;93.00
10447;DHT22;70909;45.768;4.884;2023-07-29T07:53:09;25.70;93.40
10447;DHT22;70909;45.768;4.884;2023-07-29T07:55:36;25.70;93.30
10447;DHT22;70909;45.768;4.884;2023-07-29T07:58:04;25.70;93.50
10447;DHT22;70909;45.768;4.884;2023-07-29T08:00:31;25.70;93.40
10447;DHT22;70909;45.768;4.884;2023-07-29T08:02:58;25.60;93.30
10447;DHT22;70909;45.768;4.884;2023-07-29T08:05:24;25.70;93.10
10447;DHT22;70909;45.768;4.884;2023-07-29T08:07:51;25.70;93.00
10447;DHT22;70909;45.768;4.884;2023-07-29T08:10:18;25.80;92.90
10447;DHT22;70909;45.768;4.884;2023-07-29T08:12:45;25.80;92.80
10447;DHT22;70909;45.768;4.884;2023-07-29T08:15:13;25.90;92.70
10447;DHT22;70909;45.768;4.884;2023-07-29T08:17:40;25.90;92.50
10447;DHT22;70909;45.768;4.884;2023-07-29T08:20:07;25.90;92.50
10447;DHT22;70909;45.768;4.884;2023-07-29T08:22:35;25.90;92.50
10447;DHT22;70909;45.768;4.884;2023-07-29T08:25:02;25.90;92.30
10447;DHT22;70909;45.768;4.884;2023-07-29T08:27:29;25.80;92.00
10447;DHT22;70909;45.768;4.884;2023-07-29T08:29:56;25.80;92.00
10447;DHT22;70909;45.768;4.884;2023-07-29T08:32:24;25.80;91.90
10447;DHT22;70909;45.768;4.884;2023-07-29T08:34:51;25.80;91.90
10447;DHT22;70909;45.768;4.884;2023-07-29T08:37:18;25.80;91.90
10447;DHT22;70909;45.768;4.884;2023-07-29T08:39:44;25.80;91.90
10447;DHT22;70909;45.768;4.884;2023-07-29T08:42:11;25.80;92.00
10447;DHT22;70909;45.768;4.884;2023-07-29T08:44:41;25.70;92.00
10447;DHT22;70909;45.768;4.884;2023-07-29T08:47:08;25.60;92.10
10447;DHT22;70909;45.768;4.884;2023-07-29T08:49:37;25.50;92.20
10447;DHT22;70909;45.768;4.884;2023-07-29T08:52:05;25.60;92.30
10447;DHT22;70909;45.768;4.884;2023-07-29T08:54:33;25.60;91.80
10447;DHT22;70909;45.768;4.884;2023-07-29T08:57:00;25.60;91.90
10447;DHT22;70909;45.768;4.884;2023-07-29T08:59:28;25.60;92.10
10447;DHT22;70909;45.768;4.884;2023-07-29T09:01:56;25.60;92.40
10447;DHT22;70909;45.768;4.884;2023-07-29T09:04:23;25.60;92.60
10447;DHT22;70909;45.768;4.884;2023-07-29T09:06:52;25.60;92.80
10447;DHT22;70909;45.768;4.884;2023-07-29T09:09:21;25.80;92.90
10447;DHT22;70909;45.768;4.884;2023-07-29T09:11:48;25.90;92.90
10447;DHT22;70909;45.768;4.884;2023-07-29T09:14:15;26.00;93.00
10447;DHT22;70909;45.768;4.884;2023-07-29T09:16:42;26.00;93.50
10447;DHT22;70909;45.768;4.884;2023-07-29T09:19:09;25.90;93.30
10447;DHT22;70909;45.768;4.884;2023-07-29T09:21:39;25.80;93.60
10447;DHT22;70909;45.768;4.884;2023-07-29T09:24:08;25.70;93.90
10447;DHT22;70909;45.768;4.884;2023-07-29T09:26:35;25.80;94.00
10447;DHT22;70909;45.768;4.884;2023-07-29T09:29:02;25.80;94.10
10447;DHT22;70909;45.768;4.884;2023-07-29T09:31:30;25.80;93.90
10447;DHT22;70909;45.768;4.884;2023-07-29T09:33:58;25.80;94.20
10447;DHT22;70909;45.768;4.884;2023-07-29T09:36:25;25.70;94.00
10447;DHT22;70909;45.768;4.884;2023-07-29T09:38:53;25.70;94.30
10447;DHT22;70909;45.768;4.884;2023-07-29T09:41:24;25.70;94.60
10447;DHT22;70909;45.768;4.884;2023-07-29T09:43:56;25.70;94.40
10447;DHT22;70909;45.768;4.884;2023-07-29T09:46:24;25.80;94.60
10447;DHT22;70909;45.768;4.884;2023-07-29T09:48:53;25.80;94.50
10447;DHT22;70909;45.768;4.884;2023-07-29T09:51:20;25.90;94.60
10447;DHT22;70909;45.768;4.884;2023-07-29T09:53:49;25.80;94.80
10447;DHT22;70909;45.768;4.884;2023-07-29T09:56:16;25.90;95.10
10447;DHT22;70909;45.768;4.884;2023-07-29T09:58:44;25.90;95.10
10447;DHT22;70909;45.768;4.884;2023-07-29T10:01:12;25.90;95.30
10447;DHT22;70909;45.768;4.884;2023-07-29T10:03:39;25.80;95.40
10447;DHT22;70909;45.768;4.884;2023-07-29T10:06:07;25.80;95.60
10447;DHT22;70909;45.768;4.884;2023-07-29T10:08:34;25.70;95.90
10447;DHT22;70909;45.768;4.884;2023-07-29T10:11:05;25.80;96.20
10447;DHT22;70909;45.768;4.884;2023-07-29T10:13:34;25.80;96.50
10447;DHT22;70909;45.768;4.884;2023-07-29T10:16:03;25.80;96.70
10447;DHT22;70909;45.768;4.884;2023-07-29T10:18:31;25.90;96.90
10447;DHT22;70909;45.768;4.884;2023-07-29T10:21:00;25.90;97.00
10447;DHT22;70909;45.768;4.884;2023-07-29T10:23:28;25.90;97.00
10447;DHT22;70909;45.768;4.884;2023-07-29T10:26:03;25.90;97.00
10447;DHT22;70909;45.768;4.884;2023-07-29T10:28:31;26.00;97.10
10447;DHT22;70909;45.768;4.884;2023-07-29T10:30:58;26.00;96.70
10447;DHT22;70909;45.768;4.884;2023-07-29T10:33:26;25.90;96.40
10447;DHT22;70909;45.768;4.884;2023-07-29T10:35:54;25.80;96.40
10447;DHT22;70909;45.768;4.884;2023-07-29T10:38:22;25.70;96.60
10447;DHT22;70909;45.768;4.884;2023-07-29T10:40:51;25.70;97.00
10447;DHT22;70909;45.768;4.884;2023-07-29T10:43:24;25.80;97.00
10447;DHT22;70909;45.768;4.884;2023-07-29T10:45:52;25.80;97.20
10447;DHT22;70909;45.768;4.884;2023-07-29T10:48:40;25.80;96.80
10447;DHT22;70909;45.768;4.884;2023-07-29T10:51:29;25.90;97.80
10447;DHT22;70909;45.768;4.884;2023-07-29T10:53:59;26.00;97.20
10447;DHT22;70909;45.768;4.884;2023-07-29T10:56:27;26.10;95.90
10447;DHT22;70909;45.768;4.884;2023-07-29T10:59:22;26.10;95.30
10447;DHT22;70909;45.768;4.884;2023-07-29T11:01:51;26.20;95.00
10447;DHT22;70909;45.768;4.884;2023-07-29T11:04:27;26.20;94.10
10447;DHT22;70909;45.768;4.884;2023-07-29T11:07:20;26.10;94.30
10447;DHT22;70909;45.768;4.884;2023-07-29T11:09:55;26.00;94.30
10447;DHT22;70909;45.768;4.884;2023-07-29T11:12:36;26.00;94.50
10447;DHT22;70909;45.768;4.884;2023-07-29T11:15:04;26.10;94.30
10447;DHT22;70909;45.768;4.884;2023-07-29T11:17:39;26.20;94.50
10447;DHT22;70909;45.768;4.884;2023-07-29T11:20:08;26.30;94.00
10447;DHT22;70909;45.768;4.884;2023-07-29T11:22:35;26.30;93.70
10447;DHT22;70909;45.768;4.884;2023-07-29T11:25:03;26.40;93.90
10447;DHT22;70909;45.768;4.884;2023-07-29T11:27:30;26.40;93.60
10447;DHT22;70909;45.768;4.884;2023-07-29T11:29:58;26.50;93.50
10447;DHT22;70909;45.768;4.884;2023-07-29T11:32:25;26.60;92.50
10447;DHT22;70909;45.768;4.884;2023-07-29T11:34:53;26.60;92.60
10447;DHT22;70909;45.768;4.884;2023-07-29T11:37:21;26.60;92.40
10447;DHT22;70909;45.768;4.884;2023-07-29T11:39:48;26.60;92.10
10447;DHT22;70909;45.768;4.884;2023-07-29T11:42:15;26.60;92.30
10447;DHT22;70909;45.768;4.884;2023-07-29T11:44:42;26.70;92.00
10447;DHT22;70909;45.768;4.884;2023-07-29T11:47:09;26.70;91.80
10447;DHT22;70909;45.768;4.884;2023-07-29T11:49:38;26.70;92.00
10447;DHT22;70909;45.768;4.884;2023-07-29T11:52:07;26.70;92.10
10447;DHT22;70909;45.768;4.884;2023-07-29T11:54:35;26.70;91.90
10447;DHT22;70909;45.768;4.884;2023-07-29T11:57:04;26.60;91.80
10447;DHT22;70909;45.768;4.884;2023-07-29T11:59:33;26.60;90.80
10447;DHT22;70909;45.768;4.884;2023-07-29T12:02:00;26.60;90.70
10447;DHT22;70909;45.768;4.884;2023-07-29T12:04:28;26.60;91.00
10447;DHT22;70909;45.768;4.884;2023-07-29T12:06:55;26.80;91.00
10447;DHT22;70909;45.768;4.884;2023-07-29T12:09:23;26.80;90.60
10447;DHT22;70909;45.768;4.884;2023-07-29T12:11:51;26.90;90.50
10447;DHT22;70909;45.768;4.884;2023-07-29T12:14:18;27.00;90.50
10447;DHT22;70909;45.768;4.884;2023-07-29T12:16:49;27.10;90.20
10447;DHT22;70909;45.768;4.884;2023-07-29T12:19:17;27.10;89.30
10447;DHT22;70909;45.768;4.884;2023-07-29T12:21:44;27.20;89.40
10447;DHT22;70909;45.768;4.884;2023-07-29T12:24:12;27.30;88.70
10447;DHT22;70909;45.768;4.884;2023-07-29T12:26:39;27.30;88.50
10447;DHT22;70909;45.768;4.884;2023-07-29T12:29:15;27.30;88.20
10447;DHT22;70909;45.768;4.884;2023-07-29T12:31:42;27.30;87.10
10447;DHT22;70909;45.768;4.884;2023-07-29T12:34:09;27.30;88.00
10447;DHT22;70909;45.768;4.884;2023-07-29T12:36:43;27.30;87.50
10447;DHT22;70909;45.768;4.884;2023-07-29T12:39:17;27.30;87.70
10447;DHT22;70909;45.768;4.884;2023-07-29T12:41:44;27.30;87.20
10447;DHT22;70909;45.768;4.884;2023-07-29T12:44:11;27.30;87.80
10447;DHT22;70909;45.768;4.884;2023-07-29T12:46:39;27.30;87.30
10447;DHT22;70909;45.768;4.884;2023-07-29T12:49:06;27.30;87.00
10447;DHT22;70909;45.768;4.884;2023-07-29T12:51:33;27.30;87.40
10447;DHT22;70909;45.768;4.884;2023-07-29T12:54:01;27.30;87.30
10447;DHT22;70909;45.768;4.884;2023-07-29T12:56:28;27.20;87.80
10447;DHT22;70909;45.768;4.884;2023-07-29T12:58:56;27.20;89.00
10447;DHT22;70909;45.768;4.884;2023-07-29T13:01:23;27.20;89.30
10447;DHT22;70909;45.768;4.884;2023-07-29T13:03:51;27.20;89.60
10447;DHT22;70909;45.768;4.884;2023-07-29T13:06:18;27.30;90.00
10447;DHT22;70909;45.768;4.884;2023-07-29T13:08:45;27.30;89.50
10447;DHT22;70909;45.768;4.884;2023-07-29T13:11:12;27.30;89.60
10447;DHT22;70909;45.768;4.884;2023-07-29T13:13:39;27.30;89.50
10447;DHT22;70909;45.768;4.884;2023-07-29T13:16:06;27.30;89.20
10447;DHT22;70909;45.768;4.884;2023-07-29T13:18:32;27.30;89.10
10447;DHT22;70909;45.768;4.884;2023-07-29T13:21:01;27.40;89.00
10447;DHT22;70909;45.768;4.884;2023-07-29T13:23:27;27.40;88.60
10447;DHT22;70909;45.768;4.884;2023-07-29T13:25:55;27.40;87.90
10447;DHT22;70909;45.768;4.884;2023-07-29T13:28:22;27.40;87.90
10447;DHT22;70909;45.768;4.884;2023-07-29T13:30:49;27.50;87.90
10447;DHT22;70909;45.768;4.884;2023-07-29T13:33:16;27.50;87.80
10447;DHT22;70909;45.768;4.884;2023-07-29T13:35:43;27.50;87.60
10447;DHT22;70909;45.768;4.884;2023-07-29T13:38:11;27.50;87.80
10447;DHT22;70909;45.768;4.884;2023-07-29T13:40:38;27.50;88.10
10447;DHT22;70909;45.768;4.884;2023-07-29T13:43:05;27.50;88.20
10447;DHT22;70909;45.768;4.884;2023-07-29T13:45:33;27.50;88.20
10447;DHT22;70909;45.768;4.884;2023-07-29T13:47:59;27.50;88.20
10447;DHT22;70909;45.768;4.884;2023-07-29T13:50:26;27.50;88.30
10447;DHT22;70909;45.768;4.884;2023-07-29T13:52:53;27.50;88.00
10447;DHT22;70909;45.768;4.884;2023-07-29T13:55:21;27.50;88.00
10447;DHT22;70909;45.768;4.884;2023-07-29T13:57:48;27.50;87.90
10447;DHT22;70909;45.768;4.884;2023-07-29T14:00:15;27.50;87.90
10447;DHT22;70909;45.768;4.884;2023-07-29T14:02:42;27.50;87.60
10447;DHT22;70909;45.768;4.884;2023-07-29T14:05:09;27.50;87.70
10447;DHT22;70909;45.768;4.884;2023-07-29T14:07:37;27.50;87.50
10447;DHT22;70909;45.768;4.884;2023-07-29T14:10:04;27.50;86.90
10447;DHT22;70909;45.768;4.884;2023-07-29T14:12:34;27.60;86.40
10447;DHT22;70909;45.768;4.884;2023-07-29T14:15:01;27.60;85.90
10447;DHT22;70909;45.768;4.884;2023-07-29T14:17:28;27.60;86.20
10447;DHT22;70909;45.768;4.884;2023-07-29T14:19:55;27.60;86.20
10447;DHT22;70909;45.768;4.884;2023-07-29T14:22:21;27.60;86.10
10447;DHT22;70909;45.768;4.884;2023-07-29T14:24:48;27.60;85.90
10447;DHT22;70909;45.768;4.884;2023-07-29T14:27:15;27.60;85.80
10447;DHT22;70909;45.768;4.884;2023-07-29T14:29:43;27.60;85.90
10447;DHT22;70909;45.768;4.884;2023-07-29T14:32:10;27.50;85.60
10447;DHT22;70909;45.768;4.884;2023-07-29T14:34:37;27.60;85.70
10447;DHT22;70909;45.768;4.884;2023-07-29T14:37:05;27.60;85.60
10447;DHT22;70909;45.768;4.884;2023-07-29T14:39:32;27.50;85.30
10447;DHT22;70909;45.768;4.884;2023-07-29T14:41:59;27.60;85.30
10447;DHT22;70909;45.768;4.884;2023-07-29T14:44:26;27.60;85.00
10447;DHT22;70909;45.768;4.884;2023-07-29T14:46:54;27.60;84.80
10447;DHT22;70909;45.768;4.884;2023-07-29T14:49:21;27.70;84.60
10447;DHT22;70909;45.768;4.884;2023-07-29T14:51:48;27.70;84.20
10447;DHT22;70909;45.768;4.884;2023-07-29T14:54:15;27.80;83.80
10447;DHT22;70909;45.768;4.884;2023-07-29T14:56:42;27.70;83.30
10447;DHT22;70909;45.768;4.884;2023-07-29T14:59:08;27.70;83.40
10447;DHT22;70909;45.768;4.884;2023-07-29T15:01:35;27.70;83.50
10447;DHT22;70909;45.768;4.884;2023-07-29T15:04:04;27.70;83.50
10447;DHT22;70909;45.768;4.884;2023-07-29T15:06:30;27.70;83.40
10447;DHT22;70909;45.768;4.884;2023-07-29T15:08:57;27.80;83.40
10447;DHT22;70909;45.768;4.884;2023-07-29T15:11:24;27.80;83.20
10447;DHT22;70909;45.768;4.884;2023-07-29T15:13:51;27.80;83.20
10447;DHT22;70909;45.768;4.884;2023-07-29T15:16:18;27.90;83.60
10447;DHT22;70909;45.768;4.884;2023-07-29T15:18:44;27.80;83.60
10447;DHT22;70909;45.768;4.884;2023-07-29T15:21:13;27.80;83.70
10447;DHT22;70909;45.768;4.884;2023-07-29T15:23:39;27.90;83.60
10447;DHT22;70909;45.768;4.884;2023-07-29T15:26:06;27.90;83.60
10447;DHT22;70909;45.768;4.884;2023-07-29T15:28:33;27.90;83.50
10447;DHT22;70909;45.768;4.884;2023-07-29T15:31:00;27.80;83.50
10447;DHT22;70909;45.768;4.884;2023-07-29T15:33:27;27.80;83.60